createdAt,value
2023-05-14T00:00:29.842Z,58.52
2023-05-14T00:02:56.657Z,58.48
2023-05-14T00:05:23.206Z,59.35
2023-05-14T00:07:49.572Z,59.13
2023-05-14T00:10:15.959Z,59.01
2023-05-14T00:12:42.371Z,59.32
2023-05-14T00:15:08.875Z,59.33
2023-05-14T00:17:35.318Z,58.73
2023-05-14T00:20:01.712Z,58.80
2023-05-14T00:22:28.138Z,58.46
2023-05-14T00:24:54.512Z,59.44
2023-05-14T00:27:20.897Z,59.03
2023-05-14T00:29:47.376Z,59.01
2023-05-14T00:32:13.797Z,58.89
2023-05-14T00:34:40.477Z,59.27
2023-05-14T00:37:06.878Z,59.19
2023-05-14T00:39:33.249Z,59.01
2023-05-14T00:41:59.631Z,58.35
2023-05-14T00:44:26.024Z,58.34
2023-05-14T00:46:52.454Z,58.32
2023-05-14T00:49:19.108Z,58.33
2023-05-14T00:51:45.602Z,57.99
2023-05-14T00:54:11.977Z,57.33
2023-05-14T00:56:38.406Z,57.56
2023-05-14T00:59:04.821Z,58.06
2023-05-14T01:01:31.201Z,59.19
2023-05-14T01:03:57.997Z,57.87
2023-05-14T01:06:24.551Z,58.57
2023-05-14T01:08:50.930Z,59.68
2023-05-14T01:11:17.306Z,59.94
2023-05-14T01:13:43.696Z,61.26
2023-05-14T01:16:10.124Z,60.56
2023-05-14T01:18:36.619Z,59.95
2023-05-14T01:21:03.067Z,60.33
2023-05-14T01:23:29.511Z,60.97
2023-05-14T01:25:55.900Z,61.92
2023-05-14T01:28:22.280Z,61.38
2023-05-14T01:30:48.706Z,61.79
2023-05-14T01:33:15.129Z,61.17
2023-05-14T01:35:41.510Z,61.11
2023-05-14T01:38:07.881Z,61.53
2023-05-14T01:40:34.320Z,60.84
2023-05-14T01:43:00.759Z,62.02
2023-05-14T01:45:27.181Z,61.42
2023-05-14T01:47:53.616Z,61.65
2023-05-14T01:50:20.128Z,60.49
2023-05-14T01:52:46.499Z,60.72
2023-05-14T01:55:12.891Z,60.65
2023-05-14T01:57:39.311Z,59.99
2023-05-14T02:00:05.739Z,59.83
2023-05-14T02:02:32.108Z,60.13
2023-05-14T02:04:58.570Z,59.84
2023-05-14T02:07:25.005Z,59.83
2023-05-14T02:09:51.398Z,59.25
2023-05-14T02:12:17.778Z,58.90
2023-05-14T02:14:44.216Z,59.45
2023-05-14T02:17:10.571Z,59.12
2023-05-14T02:19:36.958Z,59.45
2023-05-14T02:22:03.410Z,59.12
2023-05-14T02:24:29.796Z,59.58
2023-05-14T02:26:56.178Z,59.45
2023-05-14T02:29:22.569Z,59.58
2023-05-14T02:31:49.062Z,59.01
2023-05-14T02:34:15.444Z,59.58
2023-05-14T02:36:41.837Z,59.39
2023-05-14T02:39:08.234Z,59.52
2023-05-14T02:41:34.657Z,59.15
2023-05-14T02:44:01.063Z,59.44
2023-05-14T02:46:27.519Z,59.46
2023-05-14T02:48:53.918Z,59.26
2023-05-14T02:51:20.416Z,59.28
2023-05-14T02:53:46.820Z,59.45
2023-05-14T02:56:13.251Z,59.28
2023-05-14T02:58:39.650Z,59.34
2023-05-14T03:01:06.084Z,59.61
2023-05-14T03:03:33.190Z,59.40
2023-05-14T03:06:00.048Z,59.29
2023-05-14T03:08:26.562Z,59.31
2023-05-14T03:10:52.928Z,59.35
2023-05-14T03:13:19.324Z,58.87
2023-05-14T03:15:45.769Z,58.93
2023-05-14T03:18:12.152Z,58.71
2023-05-14T03:20:38.530Z,58.91
2023-05-14T03:23:04.893Z,58.93
2023-05-14T03:25:31.277Z,58.91
2023-05-14T03:27:57.653Z,59.12
2023-05-14T03:30:24.368Z,59.17
2023-05-14T03:32:51.035Z,58.96
2023-05-14T03:35:17.443Z,59.44
2023-05-14T03:37:43.807Z,59.48
2023-05-14T03:40:10.240Z,59.81
2023-05-14T03:42:36.631Z,59.73
2023-05-14T03:45:02.996Z,60.36
2023-05-14T03:47:29.469Z,60.53
2023-05-14T03:49:55.861Z,60.62
2023-05-14T03:52:22.260Z,60.58
2023-05-14T03:54:48.647Z,60.66
2023-05-14T03:57:15.022Z,60.00
2023-05-14T03:59:41.454Z,60.44
2023-05-14T04:02:07.895Z,59.79
2023-05-14T04:04:34.276Z,60.14
2023-05-14T04:07:00.708Z,59.74
2023-05-14T04:09:27.109Z,59.68
2023-05-14T04:11:53.533Z,60.18
2023-05-14T04:14:19.908Z,60.17
2023-05-14T04:16:46.415Z,60.04
2023-05-14T04:19:12.978Z,60.54
2023-05-14T04:21:39.607Z,60.48
2023-05-14T04:24:06.041Z,60.73
2023-05-14T04:26:32.427Z,60.06
2023-05-14T04:28:58.863Z,60.34
2023-05-14T04:31:25.286Z,59.74
2023-05-14T04:33:51.672Z,60.10
2023-05-14T04:36:18.050Z,59.69
2023-05-14T04:38:44.476Z,59.65
2023-05-14T04:41:10.865Z,59.37
2023-05-14T04:43:37.251Z,59.23
2023-05-14T04:46:03.699Z,59.57
2023-05-14T04:48:30.079Z,59.35
2023-05-14T04:50:56.481Z,59.58
2023-05-14T04:53:22.908Z,59.45
2023-05-14T04:55:49.322Z,59.01
2023-05-14T04:58:15.706Z,58.85
2023-05-14T05:00:42.083Z,58.47
2023-05-14T05:03:08.553Z,58.34
2023-05-14T05:05:35.055Z,58.12
2023-05-14T05:08:01.436Z,58.34
2023-05-14T05:10:27.805Z,58.30
2023-05-14T05:12:54.172Z,58.33
2023-05-14T05:15:20.521Z,58.42
2023-05-14T05:17:46.921Z,58.38
2023-05-14T05:20:13.367Z,58.63
2023-05-14T05:22:39.790Z,58.34
2023-05-14T05:25:06.192Z,59.14
2023-05-14T05:27:32.622Z,59.45
2023-05-14T05:29:58.980Z,59.17
2023-05-14T05:32:25.379Z,58.67
2023-05-14T05:34:51.805Z,58.73
2023-05-14T05:37:18.187Z,58.82
2023-05-14T05:39:44.551Z,58.68
2023-05-14T05:42:11.042Z,59.09
2023-05-14T05:44:37.426Z,58.63
2023-05-14T05:47:03.876Z,58.72
2023-05-14T05:49:30.363Z,58.68
2023-05-14T05:51:56.776Z,58.36
2023-05-14T05:54:23.220Z,58.75
2023-05-14T05:56:49.601Z,58.79
2023-05-14T05:59:15.986Z,58.97
2023-05-14T06:01:42.608Z,58.65
2023-05-14T06:04:08.977Z,58.38
2023-05-14T06:06:35.402Z,58.63
2023-05-14T06:09:01.845Z,57.80
2023-05-14T06:11:28.238Z,58.26
2023-05-14T06:13:54.710Z,57.93
2023-05-14T06:16:21.299Z,57.94
2023-05-14T06:18:47.816Z,57.81
2023-05-14T06:21:14.241Z,57.21
2023-05-14T06:23:40.684Z,57.59
2023-05-14T06:26:07.065Z,56.60
2023-05-14T06:28:33.587Z,56.19
2023-05-14T06:31:00.012Z,56.44
2023-05-14T06:33:26.410Z,56.33
2023-05-14T06:35:52.801Z,56.20
2023-05-14T06:38:19.232Z,56.15
2023-05-14T06:40:45.619Z,55.99
2023-05-14T06:43:12.004Z,55.63
2023-05-14T06:45:38.398Z,55.69
2023-05-14T06:48:04.893Z,55.40
2023-05-14T06:50:31.399Z,55.22
2023-05-14T06:52:57.906Z,54.86
2023-05-14T06:55:24.345Z,55.99
2023-05-14T06:57:50.728Z,55.70
2023-05-14T07:00:17.209Z,55.32
2023-05-14T07:02:43.704Z,54.73
2023-05-14T07:05:10.187Z,54.34
2023-05-14T07:07:36.631Z,54.31
2023-05-14T07:10:03.073Z,53.85
2023-05-14T07:12:29.478Z,53.50
2023-05-14T07:14:55.874Z,53.30
2023-05-14T07:17:22.408Z,53.29
2023-05-14T07:19:48.879Z,52.85
2023-05-14T07:22:15.268Z,52.53
2023-05-14T07:24:41.680Z,52.42
2023-05-14T07:27:08.071Z,52.03
2023-05-14T07:29:34.458Z,51.90
2023-05-14T07:32:00.872Z,52.32
2023-05-14T07:34:27.386Z,52.59
2023-05-14T07:36:53.847Z,52.30
2023-05-14T07:39:20.285Z,51.95
2023-05-14T07:41:46.723Z,50.67
2023-05-14T07:44:13.110Z,51.20
2023-05-14T07:46:39.545Z,50.89
2023-05-14T07:49:05.916Z,50.92
2023-05-14T07:51:32.373Z,51.36
2023-05-14T07:53:58.770Z,50.35
2023-05-14T07:56:25.132Z,50.47
2023-05-14T07:58:51.491Z,49.91
2023-05-14T08:01:17.897Z,49.42
2023-05-14T08:03:44.405Z,49.96
2023-05-14T08:06:11.095Z,49.68
2023-05-14T08:08:37.477Z,49.01
2023-05-14T08:11:03.894Z,49.12
2023-05-14T08:13:30.312Z,49.18
2023-05-14T08:15:56.727Z,49.36
2023-05-14T08:18:23.219Z,49.05
2023-05-14T08:20:49.575Z,48.04
2023-05-14T08:23:15.974Z,47.94
2023-05-14T08:25:42.370Z,47.25
2023-05-14T08:28:08.825Z,47.42
2023-05-14T08:30:35.290Z,47.39
2023-05-14T08:33:01.743Z,46.82
2023-05-14T08:35:28.210Z,46.92
2023-05-14T08:37:54.596Z,46.56
2023-05-14T08:40:20.989Z,46.60
2023-05-14T08:42:47.425Z,45.52
2023-05-14T08:45:13.816Z,45.86
2023-05-14T08:47:40.227Z,46.68
2023-05-14T08:50:06.612Z,46.39
2023-05-14T08:52:32.982Z,46.52
2023-05-14T08:54:59.360Z,45.83
2023-05-14T08:57:25.767Z,44.96
2023-05-14T08:59:52.222Z,45.07
2023-05-14T09:02:18.606Z,45.20
2023-05-14T09:04:45.034Z,45.31
2023-05-14T09:07:11.481Z,45.80
2023-05-14T09:09:37.890Z,46.12
2023-05-14T09:12:04.353Z,45.32
2023-05-14T09:14:30.744Z,45.77
2023-05-14T09:16:57.137Z,45.30
2023-05-14T09:19:23.789Z,44.99
2023-05-14T09:21:50.304Z,45.05
2023-05-14T09:24:16.680Z,44.93
2023-05-14T09:26:43.047Z,45.65
2023-05-14T09:29:09.436Z,45.24
2023-05-14T09:31:35.839Z,45.72
2023-05-14T09:34:02.251Z,44.62
2023-05-14T09:36:28.652Z,45.16
2023-05-14T09:38:55.051Z,46.35
2023-05-14T09:41:21.466Z,45.69
2023-05-14T09:43:47.863Z,45.42
2023-05-14T09:46:14.258Z,45.85
2023-05-14T09:48:40.737Z,46.73
2023-05-14T09:51:07.144Z,46.04
2023-05-14T09:53:33.580Z,45.99
2023-05-14T09:56:00.026Z,45.83
2023-05-14T09:58:26.414Z,45.62
2023-05-14T10:00:52.846Z,44.96
2023-05-14T10:03:20.093Z,43.67
2023-05-14T10:05:46.830Z,42.91
2023-05-14T10:08:13.243Z,42.71
2023-05-14T10:10:39.651Z,41.80
2023-05-14T10:13:06.046Z,41.22
2023-05-14T10:15:32.707Z,40.69
2023-05-14T10:17:59.184Z,40.30
2023-05-14T10:20:25.960Z,39.87
2023-05-14T10:22:52.605Z,39.26
2023-05-14T10:25:19.073Z,38.98
2023-05-14T10:27:45.509Z,37.85
2023-05-14T10:30:12.041Z,37.93
2023-05-14T10:32:38.458Z,38.63
2023-05-14T10:35:04.924Z,38.17
2023-05-14T10:37:31.309Z,37.55
2023-05-14T10:39:57.817Z,36.94
2023-05-14T10:42:24.323Z,36.25
2023-05-14T10:44:50.705Z,37.02
2023-05-14T10:47:17.107Z,38.07
2023-05-14T10:49:44.115Z,38.11
2023-05-14T10:52:10.550Z,37.79
2023-05-14T10:54:36.988Z,38.14
2023-05-14T10:57:03.398Z,37.41
2023-05-14T10:59:29.804Z,36.91
2023-05-14T11:01:56.311Z,37.29
2023-05-14T11:04:22.742Z,37.91
2023-05-14T11:06:49.133Z,37.11
2023-05-14T11:09:15.494Z,38.20
2023-05-14T11:11:41.892Z,37.46
2023-05-14T11:14:10.124Z,37.56
2023-05-14T11:16:36.851Z,37.80
2023-05-14T11:19:03.540Z,37.80
2023-05-14T11:21:30.296Z,37.23
2023-05-14T11:23:56.804Z,37.36
2023-05-14T11:26:23.294Z,37.21
2023-05-14T11:28:49.745Z,36.70
2023-05-14T11:31:16.215Z,36.40
2023-05-14T11:33:42.623Z,36.02
2023-05-14T11:36:08.986Z,36.03
2023-05-14T11:38:35.382Z,35.50
2023-05-14T11:41:01.786Z,35.43
2023-05-14T11:43:28.164Z,36.08
2023-05-14T11:45:54.675Z,35.41
2023-05-14T11:48:21.046Z,35.45
2023-05-14T11:50:47.448Z,35.08
2023-05-14T11:53:13.822Z,34.77
2023-05-14T11:55:40.208Z,34.66
2023-05-14T11:58:06.678Z,34.53
2023-05-14T12:00:33.110Z,34.11
2023-05-14T12:02:59.592Z,34.04
2023-05-14T12:05:26.031Z,33.89
2023-05-14T12:07:52.463Z,33.37
2023-05-14T12:10:18.902Z,33.25
2023-05-14T12:12:45.298Z,33.56
2023-05-14T12:15:11.677Z,33.61
2023-05-14T12:17:38.133Z,33.79
2023-05-14T12:20:04.577Z,33.47
2023-05-14T12:22:31.000Z,33.37
2023-05-14T12:24:57.450Z,33.61
2023-05-14T12:27:23.830Z,33.34
2023-05-14T12:29:50.226Z,32.56
2023-05-14T12:32:16.611Z,32.99
2023-05-14T12:34:43.146Z,32.90
2023-05-14T12:37:09.635Z,33.57
2023-05-14T12:39:35.990Z,34.44
2023-05-14T12:42:02.439Z,34.21
2023-05-14T12:44:28.938Z,34.31
2023-05-14T12:46:55.437Z,34.40
2023-05-14T12:49:21.846Z,34.29
2023-05-14T12:51:48.223Z,34.80
2023-05-14T12:54:14.599Z,34.21
2023-05-14T12:56:41.078Z,34.63
2023-05-14T12:59:07.521Z,34.21
2023-05-14T13:01:34.136Z,33.56
2023-05-14T13:04:00.852Z,33.38
2023-05-14T13:06:27.270Z,33.55
2023-05-14T13:08:53.727Z,35.52
2023-05-14T13:11:20.214Z,35.88
2023-05-14T13:13:46.609Z,36.93
2023-05-14T13:16:13.042Z,37.75
2023-05-14T13:18:39.485Z,37.76
2023-05-14T13:21:05.860Z,39.24
2023-05-14T13:23:32.254Z,39.57
2023-05-14T13:25:58.689Z,39.98
2023-05-14T13:28:25.081Z,41.45
2023-05-14T13:30:51.506Z,41.26
2023-05-14T13:33:17.987Z,43.09
2023-05-14T13:35:44.369Z,44.60
2023-05-14T13:38:10.750Z,45.12
2023-05-14T13:40:37.125Z,46.47
2023-05-14T13:43:03.567Z,46.46
2023-05-14T13:45:29.986Z,46.61
2023-05-14T13:47:56.616Z,44.88
2023-05-14T13:50:23.154Z,44.76
2023-05-14T13:52:49.587Z,44.15
2023-05-14T13:55:16.018Z,42.29
2023-05-14T13:57:42.532Z,41.78
2023-05-14T14:00:09.017Z,42.29
2023-05-14T14:02:35.437Z,44.33
2023-05-14T14:05:01.889Z,45.75
2023-05-14T14:07:28.462Z,45.36
2023-05-14T14:09:54.856Z,43.86
2023-05-14T14:12:21.315Z,43.78
2023-05-14T14:14:47.747Z,42.11
2023-05-14T14:17:14.166Z,41.70
2023-05-14T14:19:40.598Z,40.94
2023-05-14T14:22:07.131Z,40.27
2023-05-14T14:24:33.525Z,40.64
2023-05-14T14:26:59.952Z,42.76
2023-05-14T14:29:26.716Z,46.38
2023-05-14T14:31:53.163Z,49.69
2023-05-14T14:34:19.745Z,52.69
2023-05-14T14:36:46.127Z,51.57
2023-05-14T14:39:12.595Z,51.18
2023-05-14T14:41:39.131Z,48.44
2023-05-14T14:44:05.621Z,45.39
2023-05-14T14:46:32.243Z,46.54
2023-05-14T14:48:58.763Z,45.34
2023-05-14T14:51:25.166Z,46.05
2023-05-14T14:53:51.578Z,48.47
2023-05-14T14:56:17.978Z,45.84
2023-05-14T14:58:44.345Z,47.03
2023-05-14T15:01:10.828Z,46.17
2023-05-14T15:03:37.552Z,48.73
2023-05-14T15:06:04.193Z,49.13
2023-05-14T15:08:30.662Z,50.15
2023-05-14T15:10:57.060Z,50.27
2023-05-14T15:13:23.476Z,48.53
2023-05-14T15:15:50.023Z,48.42
2023-05-14T15:18:16.430Z,45.89
2023-05-14T15:20:42.865Z,48.12
2023-05-14T15:23:09.442Z,46.34
2023-05-14T15:25:35.824Z,46.50
2023-05-14T15:28:02.295Z,46.00
2023-05-14T15:30:28.712Z,47.16
2023-05-14T15:32:55.180Z,47.98
2023-05-14T15:35:21.703Z,47.74
2023-05-14T15:37:48.221Z,47.91
2023-05-14T15:40:14.664Z,47.99
2023-05-14T15:42:41.080Z,44.83
2023-05-14T15:45:07.530Z,44.69
2023-05-14T15:47:33.951Z,44.58
2023-05-14T15:50:00.539Z,45.15
2023-05-14T15:52:26.965Z,43.82
2023-05-14T15:54:53.340Z,41.97
2023-05-14T15:57:20.184Z,42.05
2023-05-14T15:59:46.640Z,42.39
2023-05-14T16:02:13.289Z,44.28
2023-05-14T16:04:39.718Z,46.55
2023-05-14T16:07:08.118Z,50.88
2023-05-14T16:09:35.991Z,54.34
2023-05-14T16:12:02.363Z,53.12
2023-05-14T16:14:28.728Z,48.40
2023-05-14T16:16:55.194Z,40.67
2023-05-14T16:19:21.842Z,37.45
2023-05-14T16:21:48.249Z,37.79
2023-05-14T16:24:14.668Z,31.22
2023-05-14T16:26:41.090Z,29.65
2023-05-14T16:29:07.500Z,28.63
2023-05-14T16:31:33.922Z,27.59
2023-05-14T16:34:00.302Z,34.42
2023-05-14T16:36:27.117Z,36.91
2023-05-14T16:39:06.708Z,39.32
2023-05-14T16:41:34.020Z,39.35
2023-05-14T16:44:00.539Z,40.55
2023-05-14T16:46:26.963Z,43.75
2023-05-14T16:48:53.536Z,42.25
2023-05-14T16:51:19.918Z,42.06
2023-05-14T16:53:46.399Z,43.41
2023-05-14T16:56:13.033Z,43.20
2023-05-14T16:58:39.528Z,43.72
2023-05-14T17:01:07.419Z,44.02
2023-05-14T17:03:35.795Z,44.26
2023-05-14T17:06:02.150Z,43.52
2023-05-14T17:08:28.701Z,44.01
2023-05-14T17:10:55.134Z,45.15
2023-05-14T17:13:21.538Z,46.35
2023-05-14T17:15:48.080Z,47.03
2023-05-14T17:18:14.536Z,47.24
2023-05-14T17:20:40.924Z,49.29
2023-05-14T17:23:07.334Z,50.12
2023-05-14T17:25:33.779Z,50.03
2023-05-14T17:28:00.380Z,49.46
2023-05-14T17:30:26.967Z,50.56
2023-05-14T17:32:53.403Z,50.25
2023-05-14T17:35:19.854Z,49.44
2023-05-14T17:37:46.268Z,47.34
2023-05-14T17:40:12.697Z,47.23
2023-05-14T17:42:40.259Z,48.82
2023-05-14T17:45:06.633Z,49.63
2023-05-14T17:47:33.102Z,48.91
2023-05-14T17:49:59.549Z,49.67
2023-05-14T17:52:25.929Z,49.00
2023-05-14T17:54:52.335Z,50.03
2023-05-14T17:57:18.799Z,50.53
2023-05-14T17:59:47.902Z,51.26
2023-05-14T18:02:14.289Z,51.54
2023-05-14T18:04:40.686Z,51.05
2023-05-14T18:07:07.348Z,50.31
2023-05-14T18:09:33.767Z,50.62
2023-05-14T18:12:00.224Z,50.90
2023-05-14T18:14:26.605Z,51.86
2023-05-14T18:16:53.049Z,51.72
2023-05-14T18:19:19.456Z,52.11
2023-05-14T18:21:45.825Z,50.58
2023-05-14T18:24:12.256Z,51.24
2023-05-14T18:26:38.671Z,51.78
2023-05-14T18:29:05.107Z,50.94
2023-05-14T18:31:31.574Z,52.47
2023-05-14T18:33:58.008Z,53.35
2023-05-14T18:36:24.397Z,52.37
2023-05-14T18:38:50.839Z,53.16
2023-05-14T18:41:17.276Z,54.62
2023-05-14T18:43:43.691Z,53.61
2023-05-14T18:46:10.138Z,53.20
2023-05-14T18:48:36.635Z,52.85
2023-05-14T18:51:03.056Z,53.75
2023-05-14T18:53:29.624Z,53.66
2023-05-14T18:55:56.077Z,52.81
2023-05-14T18:58:22.533Z,53.50
2023-05-14T19:00:49.038Z,52.99
2023-05-14T19:03:15.553Z,53.19
2023-05-14T19:05:42.008Z,51.64
2023-05-14T19:08:08.417Z,50.72
2023-05-14T19:10:34.886Z,50.74
2023-05-14T19:13:01.298Z,50.50
2023-05-14T19:15:27.700Z,49.94
2023-05-14T19:17:54.207Z,49.58
2023-05-14T19:20:20.751Z,48.96
2023-05-14T19:22:47.136Z,48.05
2023-05-14T19:25:13.554Z,47.11
2023-05-14T19:27:39.987Z,46.14
2023-05-14T19:30:06.434Z,46.46
2023-05-14T19:32:32.877Z,46.81
2023-05-14T19:34:59.275Z,46.34
2023-05-14T19:37:25.712Z,46.33
2023-05-14T19:39:52.369Z,47.03
2023-05-14T19:42:18.751Z,47.08
2023-05-14T19:44:45.141Z,47.40
2023-05-14T19:47:12.792Z,49.04
2023-05-14T19:49:39.189Z,49.18
2023-05-14T19:52:05.591Z,51.56
2023-05-14T19:54:32.089Z,52.67
2023-05-14T19:56:58.522Z,56.10
2023-05-14T19:59:24.896Z,55.86
2023-05-14T20:01:51.317Z,56.04
2023-05-14T20:04:17.685Z,56.85
2023-05-14T20:06:44.187Z,56.15
2023-05-14T20:09:10.558Z,55.83
2023-05-14T20:11:36.934Z,55.14
2023-05-14T20:14:03.335Z,54.30
2023-05-14T20:16:29.780Z,54.08
2023-05-14T20:18:56.352Z,53.95
2023-05-14T20:21:22.750Z,56.38
2023-05-14T20:23:49.167Z,59.26
2023-05-14T20:26:15.699Z,59.92
2023-05-14T20:28:42.210Z,60.51
2023-05-14T20:31:08.634Z,60.85
2023-05-14T20:33:35.034Z,60.61
2023-05-14T20:36:01.490Z,59.65
2023-05-14T20:38:27.888Z,60.04
2023-05-14T20:40:54.275Z,60.69
2023-05-14T20:43:20.649Z,59.59
2023-05-14T20:45:47.089Z,60.18
2023-05-14T20:48:13.516Z,60.31
2023-05-14T20:50:39.943Z,59.70
2023-05-14T20:53:06.454Z,59.59
2023-05-14T20:55:32.857Z,60.05
2023-05-14T20:57:59.273Z,60.29
2023-05-14T21:00:25.717Z,59.13
2023-05-14T21:02:52.179Z,59.04
2023-05-14T21:05:18.778Z,59.04
2023-05-14T21:07:45.225Z,58.71
2023-05-14T21:10:11.781Z,58.73
2023-05-14T21:12:38.265Z,57.82
2023-05-14T21:15:04.681Z,58.65
2023-05-14T21:17:31.097Z,58.32
2023-05-14T21:19:57.634Z,58.35
2023-05-14T21:22:24.023Z,57.94
2023-05-14T21:24:50.429Z,58.01
2023-05-14T21:27:16.873Z,58.24
2023-05-14T21:29:43.269Z,58.57
2023-05-14T21:32:09.656Z,59.43
2023-05-14T21:34:36.136Z,59.79
2023-05-14T21:37:02.669Z,60.62
2023-05-14T21:39:29.141Z,61.74
2023-05-14T21:41:55.541Z,63.01
2023-05-14T21:44:21.925Z,62.95
2023-05-14T21:46:48.361Z,62.42
2023-05-14T21:49:14.724Z,59.83
2023-05-14T21:51:41.107Z,62.57
2023-05-14T21:54:07.522Z,63.42
2023-05-14T21:56:33.889Z,64.02
2023-05-14T21:59:00.418Z,64.44
2023-05-14T22:01:26.854Z,64.05
2023-05-14T22:03:54.152Z,64.20
2023-05-14T22:06:21.497Z,64.02
2023-05-14T22:08:47.926Z,62.81
2023-05-14T22:11:14.305Z,62.88
2023-05-14T22:13:40.889Z,63.64
2023-05-14T22:16:12.627Z,62.94
2023-05-14T22:18:39.573Z,63.77
2023-05-14T22:21:06.081Z,65.15
2023-05-14T22:23:32.554Z,64.87
2023-05-14T22:25:58.993Z,64.00
2023-05-14T22:28:25.440Z,64.51
2023-05-14T22:30:51.883Z,62.90
2023-05-14T22:33:18.275Z,62.32
2023-05-14T22:35:44.654Z,61.50
2023-05-14T22:38:11.042Z,60.49
2023-05-14T22:40:37.490Z,60.12
2023-05-14T22:43:03.904Z,60.35
2023-05-14T22:45:30.323Z,60.56
2023-05-14T22:47:56.798Z,60.11
2023-05-14T22:50:23.199Z,60.12
2023-05-14T22:52:49.652Z,60.28
2023-05-14T22:55:18.795Z,60.42
2023-05-14T22:57:46.010Z,60.46
2023-05-14T23:00:12.468Z,61.36
2023-05-14T23:02:38.936Z,62.21
2023-05-14T23:05:05.382Z,62.20
2023-05-14T23:07:31.753Z,61.89
2023-05-14T23:09:58.221Z,61.06
2023-05-14T23:12:24.656Z,60.82
2023-05-14T23:14:51.032Z,59.92
2023-05-14T23:17:17.407Z,60.02
2023-05-14T23:19:43.795Z,61.12
2023-05-14T23:22:10.208Z,60.25
2023-05-14T23:24:36.608Z,61.49
2023-05-14T23:27:03.015Z,61.91
2023-05-14T23:29:29.398Z,61.11
2023-05-14T23:31:55.976Z,61.23
2023-05-14T23:34:22.492Z,60.90
2023-05-14T23:36:48.914Z,61.01
2023-05-14T23:39:15.305Z,61.68
2023-05-14T23:41:41.739Z,62.04
2023-05-14T23:44:08.150Z,63.92
2023-05-14T23:46:34.593Z,63.17
2023-05-14T23:49:00.987Z,63.13
2023-05-14T23:51:27.379Z,62.63
2023-05-14T23:53:53.915Z,62.89
2023-05-14T23:56:20.289Z,61.97
2023-05-14T23:58:46.676Z,61.27
